createdAt,value
2022-09-30T00:01:03.657Z,100242.59
2022-09-30T00:03:43.430Z,100246.38
2022-09-30T00:06:10.458Z,100240.69
2022-09-30T00:08:37.411Z,100239.75
2022-09-30T00:11:11.457Z,100253.84
2022-09-30T00:13:39.377Z,100240.50
2022-09-30T00:16:09.354Z,100237.53
2022-09-30T00:18:37.099Z,100242.41
2022-09-30T00:21:04.302Z,100242.75
2022-09-30T00:23:30.863Z,100246.69
2022-09-30T00:25:59.444Z,100253.19
2022-09-30T00:28:26.424Z,100243.78
2022-09-30T00:30:53.209Z,100247.72
2022-09-30T00:33:19.312Z,100246.97
2022-09-30T00:35:45.678Z,100243.66
2022-09-30T00:38:12.106Z,100243.03
2022-09-30T00:40:38.619Z,100249.84
2022-09-30T00:43:20.375Z,100251.53
2022-09-30T00:45:55.407Z,100254.94
2022-09-30T00:48:32.998Z,100252.28
2022-09-30T00:51:02.039Z,100259.38
2022-09-30T00:53:34.710Z,100264.09
2022-09-30T00:56:18.264Z,100262.78
2022-09-30T00:58:50.804Z,100264.09
2022-09-30T01:01:18.268Z,100264.50
2022-09-30T01:03:50.647Z,100252.81
2022-09-30T01:06:18.709Z,100250.94
2022-09-30T01:08:45.016Z,100257.94
2022-09-30T01:11:11.507Z,100259.81
2022-09-30T01:13:40.295Z,100265.09
2022-09-30T01:16:28.024Z,100272.13
2022-09-30T01:19:01.389Z,100259.94
2022-09-30T01:21:53.658Z,100255.13
2022-09-30T01:24:48.154Z,100263.78
2022-09-30T01:27:38.633Z,100275.22
2022-09-30T01:30:10.546Z,100273.75
2022-09-30T01:33:03.333Z,100268.97
2022-09-30T01:36:05.272Z,100278.78
2022-09-30T01:38:57.457Z,100277.16
2022-09-30T01:41:49.432Z,100275.31
2022-09-30T01:44:15.492Z,100286.13
2022-09-30T01:47:00.715Z,100286.25
2022-09-30T01:49:48.118Z,100281.09
2022-09-30T01:52:27.474Z,100287.91
2022-09-30T01:55:02.051Z,100292.84
2022-09-30T01:57:40.883Z,100299.09
2022-09-30T02:00:09.723Z,100290.28
2022-09-30T02:02:52.939Z,100284.56
2022-09-30T02:05:31.713Z,100296.63
2022-09-30T02:08:07.210Z,100285.28
2022-09-30T02:10:39.071Z,100289.13
2022-09-30T02:13:15.835Z,100282.88
2022-09-30T02:15:47.885Z,100276.84
2022-09-30T02:18:26.099Z,100282.88
2022-09-30T02:20:59.899Z,100285.13
2022-09-30T02:23:29.678Z,100276.00
2022-09-30T02:26:07.067Z,100275.16
2022-09-30T02:28:42.715Z,100278.84
2022-09-30T02:31:11.669Z,100278.22
2022-09-30T02:33:43.565Z,100283.41
2022-09-30T02:36:22.376Z,100283.56
2022-09-30T02:38:58.792Z,100273.22
2022-09-30T02:41:27.853Z,100277.47
2022-09-30T02:43:55.067Z,100281.72
2022-09-30T02:46:44.147Z,100278.53
2022-09-30T02:49:37.476Z,100287.50
2022-09-30T02:52:24.465Z,100286.66
2022-09-30T02:55:27.442Z,100296.25
2022-09-30T02:58:03.884Z,100295.09
2022-09-30T03:00:31.670Z,100299.41
2022-09-30T03:03:04.945Z,100307.50
2022-09-30T03:05:31.743Z,100318.47
2022-09-30T03:07:57.972Z,100310.13
2022-09-30T03:10:24.472Z,100309.19
2022-09-30T03:13:20.270Z,100302.50
2022-09-30T03:16:05.007Z,100307.41
2022-09-30T03:18:51.803Z,100305.41
2022-09-30T03:21:54.916Z,100302.41
2022-09-30T03:24:33.756Z,100301.72
2022-09-30T03:27:14.617Z,100309.34
2022-09-30T03:29:48.951Z,100307.66
2022-09-30T03:32:29.504Z,100312.91
2022-09-30T03:35:18.415Z,100300.84
2022-09-30T03:37:59.772Z,100310.13
2022-09-30T03:40:48.878Z,100306.00
2022-09-30T03:43:28.527Z,100306.88
2022-09-30T03:46:01.847Z,100311.41
2022-09-30T03:48:30.688Z,100321.66
2022-09-30T03:50:58.727Z,100318.53
2022-09-30T03:53:27.780Z,100326.72
2022-09-30T03:55:54.494Z,100321.41
2022-09-30T03:58:25.405Z,100322.41
2022-09-30T04:00:53.715Z,100318.47
2022-09-30T04:03:21.384Z,100316.22
2022-09-30T04:05:48.297Z,100321.31
2022-09-30T04:08:15.186Z,100334.53
2022-09-30T04:10:43.218Z,100333.81
2022-09-30T04:13:10.359Z,100347.03
2022-09-30T04:15:36.824Z,100343.44
2022-09-30T04:18:04.465Z,100340.09
2022-09-30T04:20:31.665Z,100331.13
2022-09-30T04:23:01.268Z,100335.97
2022-09-30T04:25:27.894Z,100332.44
2022-09-30T04:27:55.307Z,100337.72
2022-09-30T04:30:25.599Z,100339.63
2022-09-30T04:32:53.465Z,100343.94
2022-09-30T04:35:19.848Z,100336.13
2022-09-30T04:37:47.018Z,100341.81
2022-09-30T04:40:15.033Z,100342.69
2022-09-30T04:42:43.742Z,100349.41
2022-09-30T04:45:13.746Z,100356.75
2022-09-30T04:47:44.622Z,100361.19
2022-09-30T04:50:11.188Z,100357.94
2022-09-30T04:52:37.726Z,100362.34
2022-09-30T04:55:04.971Z,100359.94
2022-09-30T04:57:31.704Z,100364.63
2022-09-30T04:59:57.833Z,100370.47
2022-09-30T05:02:24.396Z,100375.75
2022-09-30T05:05:09.652Z,100381.13
2022-09-30T05:07:35.854Z,100378.44
2022-09-30T05:10:02.242Z,100378.31
2022-09-30T05:12:28.481Z,100383.13
2022-09-30T05:14:54.595Z,100388.81
2022-09-30T05:17:20.902Z,100393.78
2022-09-30T05:19:47.158Z,100391.50
2022-09-30T05:22:14.067Z,100395.19
2022-09-30T05:24:40.519Z,100400.16
2022-09-30T05:27:07.095Z,100396.59
2022-09-30T05:29:33.288Z,100392.88
2022-09-30T05:31:59.895Z,100406.50
2022-09-30T05:34:26.249Z,100405.94
2022-09-30T05:36:52.508Z,100411.31
2022-09-30T05:39:18.875Z,100409.44
2022-09-30T05:41:45.270Z,100420.53
2022-09-30T05:44:11.471Z,100424.84
2022-09-30T05:46:37.951Z,100424.38
2022-09-30T05:49:04.284Z,100417.59
2022-09-30T05:51:30.724Z,100418.13
2022-09-30T05:53:56.995Z,100422.47
2022-09-30T05:56:23.087Z,100428.00
2022-09-30T05:58:50.172Z,100429.22
2022-09-30T06:01:16.865Z,100430.50
2022-09-30T06:03:46.057Z,100431.06
2022-09-30T06:06:13.465Z,100431.91
2022-09-30T06:08:41.114Z,100434.19
2022-09-30T06:11:11.672Z,100433.03
2022-09-30T06:13:39.064Z,100443.50
2022-09-30T06:16:06.903Z,100444.53
2022-09-30T06:18:33.764Z,100441.13
2022-09-30T06:21:02.220Z,100449.84
2022-09-30T06:23:30.290Z,100455.72
2022-09-30T06:25:57.046Z,100459.47
2022-09-30T06:28:23.672Z,100461.22
2022-09-30T06:30:50.165Z,100460.59
2022-09-30T06:33:16.782Z,100467.66
2022-09-30T06:35:43.453Z,100475.78
2022-09-30T06:38:10.449Z,100475.84
2022-09-30T06:40:37.591Z,100477.00
2022-09-30T06:43:04.523Z,100472.75
2022-09-30T06:45:33.200Z,100477.31
2022-09-30T06:48:01.405Z,100475.47
2022-09-30T06:50:29.752Z,100477.06
2022-09-30T06:53:01.124Z,100480.91
2022-09-30T06:55:29.159Z,100476.44
2022-09-30T06:57:56.313Z,100479.38
2022-09-30T07:00:25.311Z,100488.13
2022-09-30T07:02:54.255Z,100489.25
2022-09-30T07:05:20.498Z,100488.63
2022-09-30T07:07:47.934Z,100493.06
2022-09-30T07:10:14.345Z,100497.16
2022-09-30T07:12:41.556Z,100493.78
2022-09-30T07:15:12.802Z,100503.63
2022-09-30T07:17:40.108Z,100503.31
2022-09-30T07:20:07.549Z,100509.41
2022-09-30T07:22:33.984Z,100506.00
2022-09-30T07:25:06.308Z,100503.97
2022-09-30T07:27:33.374Z,100507.19
2022-09-30T07:30:09.757Z,100509.06
2022-09-30T07:32:39.082Z,100520.25
2022-09-30T07:35:06.576Z,100506.50
2022-09-30T07:37:35.283Z,100506.31
2022-09-30T07:40:06.978Z,100509.13
2022-09-30T07:42:38.813Z,100515.59
2022-09-30T07:45:05.525Z,100514.06
2022-09-30T07:47:31.748Z,100507.25
2022-09-30T07:49:58.892Z,100512.03
2022-09-30T07:52:25.052Z,100519.53
2022-09-30T07:54:51.279Z,100514.41
2022-09-30T07:57:17.783Z,100518.28
2022-09-30T07:59:44.163Z,100520.66
2022-09-30T08:02:17.824Z,100523.47
2022-09-30T08:04:45.525Z,100525.81
2022-09-30T08:07:17.092Z,100533.06
2022-09-30T08:09:43.448Z,100541.72
2022-09-30T08:12:09.983Z,100538.22
2022-09-30T08:14:36.201Z,100541.28
2022-09-30T08:17:02.478Z,100545.41
2022-09-30T08:19:30.253Z,100552.19
2022-09-30T08:21:57.021Z,100543.47
2022-09-30T08:24:25.781Z,100559.00
2022-09-30T08:26:52.936Z,100558.25
2022-09-30T08:32:06.653Z,100562.19
2022-09-30T08:34:34.847Z,100562.16
2022-09-30T08:37:03.861Z,100566.16
2022-09-30T08:39:34.144Z,100563.28
2022-09-30T08:42:45.969Z,100565.09
2022-09-30T08:45:51.941Z,100565.41
2022-09-30T08:48:30.769Z,100560.56
2022-09-30T08:51:41.000Z,100567.75
2022-09-30T08:54:13.997Z,100565.59
2022-09-30T08:56:43.507Z,100573.59
2022-09-30T08:59:26.440Z,100574.69
2022-09-30T09:02:18.699Z,100577.78
2022-09-30T09:04:47.167Z,100567.69
2022-09-30T09:07:25.473Z,100573.63
2022-09-30T09:10:11.786Z,100579.66
2022-09-30T09:12:52.332Z,100583.16
2022-09-30T09:15:44.954Z,100577.91
2022-09-30T09:18:26.553Z,100583.16
2022-09-30T09:20:59.155Z,100579.31
2022-09-30T09:23:27.751Z,100585.47
2022-09-30T09:25:55.097Z,100585.09
2022-09-30T09:28:25.228Z,100585.94
2022-09-30T09:30:56.884Z,100585.75
2022-09-30T09:33:28.811Z,100588.94
2022-09-30T09:36:20.826Z,100595.91
2022-09-30T09:39:05.285Z,100591.75
2022-09-30T09:41:44.304Z,100594.31
2022-09-30T09:44:38.269Z,100593.03
2022-09-30T09:47:13.510Z,100591.34
2022-09-30T09:49:42.803Z,100583.59
2022-09-30T09:52:12.226Z,100582.97
2022-09-30T09:54:44.705Z,100579.53
2022-09-30T09:57:14.647Z,100583.88
2022-09-30T09:59:57.845Z,100581.66
2022-09-30T10:02:30.814Z,100586.41
2022-09-30T10:05:02.406Z,100585.63
2022-09-30T10:07:32.450Z,100576.50
2022-09-30T10:10:22.329Z,100579.47
2022-09-30T10:12:50.628Z,100576.75
2022-09-30T10:15:22.597Z,100580.34
2022-09-30T10:17:57.411Z,100581.97
2022-09-30T10:20:31.302Z,100580.28
2022-09-30T10:23:07.109Z,100583.75
2022-09-30T10:25:33.937Z,100577.94
2022-09-30T10:28:02.848Z,100587.97
2022-09-30T10:30:41.031Z,100590.59
2022-09-30T10:33:30.109Z,100591.31
2022-09-30T10:36:19.337Z,100592.06
2022-09-30T10:39:07.671Z,100596.09
2022-09-30T10:41:37.068Z,100601.91
2022-09-30T10:44:12.219Z,100606.03
2022-09-30T10:46:40.845Z,100599.63
2022-09-30T10:49:19.698Z,100591.78
2022-09-30T10:51:46.003Z,100602.34
2022-09-30T10:54:42.443Z,100604.75
2022-09-30T10:57:18.923Z,100591.91
2022-09-30T10:59:46.575Z,100587.63
2022-09-30T11:02:25.421Z,100586.66
2022-09-30T11:05:04.859Z,100590.75
2022-09-30T11:07:44.835Z,100575.47
2022-09-30T11:10:29.187Z,100584.78
2022-09-30T11:13:11.556Z,100582.97
2022-09-30T11:16:02.058Z,100590.00
2022-09-30T11:18:36.842Z,100583.94
2022-09-30T11:21:11.461Z,100581.84
2022-09-30T11:23:43.782Z,100575.75
2022-09-30T11:26:54.734Z,100575.91
2022-09-30T11:29:45.861Z,100580.50
2022-09-30T11:32:38.122Z,100579.66
2022-09-30T11:35:27.442Z,100577.13
2022-09-30T11:38:22.954Z,100576.44
2022-09-30T11:40:56.193Z,100585.47
2022-09-30T11:44:00.715Z,100587.28
2022-09-30T11:46:48.338Z,100578.94
2022-09-30T11:49:32.793Z,100582.34
2022-09-30T11:52:17.751Z,100578.53
2022-09-30T11:55:18.254Z,100579.16
2022-09-30T11:58:39.995Z,100575.34
2022-09-30T12:01:24.879Z,100578.66
2022-09-30T12:04:13.979Z,100572.19
2022-09-30T12:06:53.210Z,100568.00
2022-09-30T12:09:25.428Z,100567.44
2022-09-30T12:12:02.590Z,100563.47
2022-09-30T12:14:35.499Z,100565.25
2022-09-30T12:17:06.990Z,100556.44
2022-09-30T12:19:43.029Z,100566.44
2022-09-30T12:22:31.047Z,100565.84
2022-09-30T12:24:57.178Z,100570.13
2022-09-30T12:27:33.378Z,100568.75
2022-09-30T12:30:19.932Z,100565.56
2022-09-30T12:33:24.470Z,100563.72
2022-09-30T12:36:08.333Z,100558.28
2022-09-30T12:39:00.260Z,100559.50
2022-09-30T12:41:54.608Z,100564.81
2022-09-30T12:44:55.824Z,100559.22
2022-09-30T12:47:22.107Z,100562.81
2022-09-30T12:49:50.461Z,100571.63
2022-09-30T12:52:20.829Z,100569.13
2022-09-30T12:54:56.873Z,100568.91
2022-09-30T12:57:31.261Z,100570.25
2022-09-30T13:00:07.478Z,100573.03
2022-09-30T13:02:39.581Z,100556.66
2022-09-30T13:05:30.384Z,100566.56
2022-09-30T13:08:02.976Z,100569.25
2022-09-30T13:10:38.206Z,100572.38
2022-09-30T13:13:10.652Z,100578.47
2022-09-30T13:15:43.718Z,100574.41
2022-09-30T13:18:19.216Z,100580.53
2022-09-30T13:21:05.965Z,100577.94
2022-09-30T13:23:44.529Z,100573.50
2022-09-30T13:26:30.961Z,100580.00
2022-09-30T13:29:00.173Z,100584.03
2022-09-30T13:31:31.561Z,100582.75
2022-09-30T13:34:03.695Z,100583.75
2022-09-30T13:36:56.262Z,100576.16
2022-09-30T13:39:22.398Z,100576.66
2022-09-30T13:42:00.923Z,100582.47
2022-09-30T13:44:45.625Z,100569.25
2022-09-30T13:47:27.339Z,100578.47
2022-09-30T13:50:12.476Z,100578.81
2022-09-30T13:52:41.492Z,100581.81
2022-09-30T13:55:19.221Z,100581.69
2022-09-30T13:58:11.345Z,100580.53
2022-09-30T14:01:02.625Z,100580.13
2022-09-30T14:03:48.597Z,100572.59
2022-09-30T14:06:26.696Z,100576.66
2022-09-30T14:09:14.841Z,100577.16
2022-09-30T14:11:43.968Z,100581.94
2022-09-30T14:14:39.753Z,100569.88
2022-09-30T14:17:21.045Z,100578.59
2022-09-30T14:20:02.423Z,100584.00
2022-09-30T14:22:29.447Z,100583.22
2022-09-30T14:24:57.156Z,100581.13
2022-09-30T14:27:47.644Z,100577.44
2022-09-30T14:30:19.642Z,100575.84
2022-09-30T14:32:49.739Z,100570.63
2022-09-30T14:35:24.342Z,100571.94
2022-09-30T14:37:55.344Z,100574.59
2022-09-30T14:40:39.886Z,100580.28
2022-09-30T14:43:12.689Z,100591.81
2022-09-30T14:45:46.520Z,100586.41
2022-09-30T14:48:32.621Z,100583.81
2022-09-30T14:51:00.892Z,100582.56
2022-09-30T14:53:29.238Z,100580.56
2022-09-30T14:55:56.528Z,100574.75
2022-09-30T14:58:29.801Z,100581.66
2022-09-30T15:00:56.368Z,100580.25
2022-09-30T15:03:23.359Z,100579.94
2022-09-30T15:05:51.522Z,100577.22
2022-09-30T15:08:20.665Z,100587.69
2022-09-30T15:10:49.625Z,100593.06
2022-09-30T15:13:19.131Z,100590.72
2022-09-30T15:15:45.498Z,100589.50
2022-09-30T15:18:28.754Z,100599.13
2022-09-30T15:21:03.994Z,100592.63
2022-09-30T15:23:34.285Z,100606.66
2022-09-30T15:26:04.209Z,100605.81
2022-09-30T15:28:30.634Z,100609.09
2022-09-30T15:30:58.219Z,100617.97
2022-09-30T15:33:32.258Z,100612.88
2022-09-30T15:36:13.505Z,100604.41
2022-09-30T15:38:40.238Z,100608.53
2022-09-30T15:41:09.301Z,100618.16
2022-09-30T15:43:51.243Z,100613.69
2022-09-30T15:46:26.997Z,100617.16
2022-09-30T15:49:34.209Z,100618.25
2022-09-30T15:52:28.054Z,100622.25
2022-09-30T15:54:55.842Z,100617.06
2022-09-30T15:57:51.934Z,100624.56
2022-09-30T16:00:40.495Z,100618.81
2022-09-30T16:03:20.311Z,100629.13
2022-09-30T16:05:51.842Z,100617.06
2022-09-30T16:08:28.542Z,100627.72
2022-09-30T16:10:57.655Z,100622.19
2022-09-30T16:13:29.499Z,100627.88
2022-09-30T16:15:57.742Z,100626.06
2022-09-30T16:18:31.340Z,100621.00
2022-09-30T16:21:03.755Z,100627.50
2022-09-30T16:23:34.865Z,100624.16
2022-09-30T16:26:21.107Z,100629.84
2022-09-30T16:28:47.605Z,100627.13
2022-09-30T16:31:15.627Z,100639.56
2022-09-30T16:33:43.861Z,100630.03
2022-09-30T16:36:11.498Z,100636.69
2022-09-30T16:38:38.400Z,100647.91
2022-09-30T16:41:05.011Z,100643.00
2022-09-30T16:43:31.593Z,100636.91
2022-09-30T16:45:59.215Z,100628.53
2022-09-30T16:48:26.638Z,100637.09
2022-09-30T16:51:01.386Z,100646.44
2022-09-30T16:53:28.643Z,100642.88
2022-09-30T16:55:56.523Z,100636.72
2022-09-30T16:58:23.082Z,100632.94
2022-09-30T17:00:51.157Z,100633.78
2022-09-30T17:03:18.290Z,100639.22
2022-09-30T17:05:45.975Z,100638.03
2022-09-30T17:08:14.194Z,100641.91
2022-09-30T17:10:42.762Z,100643.59
2022-09-30T17:13:09.881Z,100648.88
2022-09-30T17:15:36.961Z,100648.34
2022-09-30T17:18:08.701Z,100644.22
2022-09-30T17:20:43.496Z,100645.06
2022-09-30T17:23:11.699Z,100641.50
2022-09-30T17:25:42.186Z,100634.03
2022-09-30T17:28:10.505Z,100633.84
2022-09-30T17:30:40.870Z,100639.94
2022-09-30T17:33:09.295Z,100637.72
2022-09-30T17:35:37.720Z,100636.63
2022-09-30T17:38:08.331Z,100645.41
2022-09-30T17:40:54.517Z,100650.03
2022-09-30T17:43:21.545Z,100657.66
2022-09-30T17:45:50.287Z,100657.97
2022-09-30T17:48:17.682Z,100659.84
2022-09-30T17:50:47.688Z,100656.28
2022-09-30T17:53:18.615Z,100665.13
2022-09-30T17:55:50.164Z,100660.00
2022-09-30T17:58:18.112Z,100670.00
2022-09-30T18:00:46.109Z,100670.19
2022-09-30T18:03:12.894Z,100664.59
2022-09-30T18:05:39.693Z,100662.88
2022-09-30T18:08:06.979Z,100668.53
2022-09-30T18:10:38.344Z,100673.63
2022-09-30T18:13:05.443Z,100664.31
2022-09-30T18:15:32.592Z,100664.50
2022-09-30T18:17:59.173Z,100677.44
2022-09-30T18:20:30.498Z,100670.66
2022-09-30T18:22:57.017Z,100677.63
2022-09-30T18:25:23.560Z,100684.63
2022-09-30T18:27:53.434Z,100681.22
2022-09-30T18:30:21.299Z,100681.53
2022-09-30T18:32:53.558Z,100678.81
2022-09-30T18:35:23.893Z,100681.69
2022-09-30T18:37:51.713Z,100679.78
2022-09-30T18:40:23.975Z,100686.06
2022-09-30T18:42:59.929Z,100680.63
2022-09-30T18:45:32.297Z,100687.25
2022-09-30T18:47:59.588Z,100701.47
2022-09-30T18:50:28.170Z,100690.78
2022-09-30T18:52:56.527Z,100679.53
2022-09-30T18:55:24.530Z,100684.13
2022-09-30T18:57:55.086Z,100683.59
2022-09-30T19:00:22.062Z,100684.06
2022-09-30T19:02:51.133Z,100680.66
2022-09-30T19:05:21.166Z,100672.53
2022-09-30T19:07:47.799Z,100669.97
2022-09-30T19:10:15.122Z,100661.97
2022-09-30T19:12:44.525Z,100664.69
2022-09-30T19:15:16.388Z,100664.31
2022-09-30T19:17:44.201Z,100661.94
2022-09-30T19:20:11.440Z,100660.38
2022-09-30T19:22:38.883Z,100655.97
2022-09-30T19:25:10.288Z,100661.63
2022-09-30T19:27:37.875Z,100658.38
2022-09-30T19:30:09.890Z,100664.84
2022-09-30T19:32:36.588Z,100668.25
2022-09-30T19:37:59.693Z,100670.41
2022-09-30T19:40:28.800Z,100658.31
2022-09-30T19:42:55.394Z,100663.13
2022-09-30T19:45:25.784Z,100668.75
2022-09-30T19:47:53.479Z,100676.75
2022-09-30T19:50:20.011Z,100679.63
2022-09-30T19:52:56.317Z,100670.78
2022-09-30T19:55:25.465Z,100670.09
2022-09-30T19:57:52.192Z,100653.34
2022-09-30T20:00:19.214Z,100656.69
2022-09-30T20:02:45.833Z,100648.50
2022-09-30T20:05:12.710Z,100654.28
2022-09-30T20:07:39.613Z,100656.63
2022-09-30T20:10:07.194Z,100657.78
2022-09-30T20:12:33.619Z,100665.41
2022-09-30T20:15:18.371Z,100662.16
2022-09-30T20:17:45.211Z,100669.44
2022-09-30T20:20:30.506Z,100660.97
2022-09-30T20:23:00.191Z,100654.84
2022-09-30T20:25:27.516Z,100648.28
2022-09-30T20:27:53.788Z,100652.22
2022-09-30T20:30:21.396Z,100659.19
2022-09-30T20:32:47.733Z,100652.44
2022-09-30T20:35:14.169Z,100648.50
2022-09-30T20:37:41.811Z,100660.50
2022-09-30T20:40:08.786Z,100663.06
2022-09-30T20:42:37.214Z,100662.53
2022-09-30T20:45:09.822Z,100664.38
2022-09-30T20:47:41.371Z,100663.69
2022-09-30T20:50:09.636Z,100657.94
2022-09-30T20:52:36.023Z,100662.00
2022-09-30T20:55:02.698Z,100663.38
2022-09-30T20:57:29.697Z,100673.91
2022-09-30T20:59:57.833Z,100671.19
2022-09-30T21:02:27.375Z,100673.91
2022-09-30T21:04:59.358Z,100664.44
2022-09-30T21:07:26.471Z,100671.31
2022-09-30T21:09:53.353Z,100667.47
2022-09-30T21:12:19.907Z,100658.47
2022-09-30T21:14:46.133Z,100667.69
2022-09-30T21:17:12.519Z,100665.13
2022-09-30T21:19:39.341Z,100663.97
2022-09-30T21:22:05.521Z,100656.97
2022-09-30T21:24:31.780Z,100661.41
2022-09-30T21:26:58.232Z,100658.84
2022-09-30T21:29:24.902Z,100660.88
2022-09-30T21:31:51.587Z,100664.88
2022-09-30T21:34:18.002Z,100666.47
2022-09-30T21:36:45.656Z,100662.88
2022-09-30T21:39:11.913Z,100664.19
2022-09-30T21:41:39.970Z,100666.69
2022-09-30T21:44:06.262Z,100669.72
2022-09-30T21:46:33.980Z,100664.06
2022-09-30T21:49:05.706Z,100663.69
2022-09-30T21:51:34.151Z,100670.13
2022-09-30T21:54:01.473Z,100672.69
2022-09-30T21:56:29.099Z,100670.44
2022-09-30T21:58:56.101Z,100672.31
2022-09-30T22:01:22.742Z,100663.47
2022-09-30T22:03:49.204Z,100672.63
2022-09-30T22:06:18.084Z,100677.53
2022-09-30T22:08:44.368Z,100668.53
2022-09-30T22:11:16.286Z,100664.97
2022-09-30T22:13:44.427Z,100664.75
2022-09-30T22:16:13.682Z,100674.44
2022-09-30T22:18:41.850Z,100673.75
2022-09-30T22:21:17.076Z,100672.03
2022-09-30T22:23:46.107Z,100665.13
2022-09-30T22:26:16.965Z,100668.38
2022-09-30T22:28:45.029Z,100659.06
2022-09-30T22:31:19.824Z,100658.56
2022-09-30T22:34:07.596Z,100659.59
2022-09-30T22:36:53.035Z,100654.53
2022-09-30T22:39:20.173Z,100648.44
2022-09-30T22:41:47.003Z,100647.78
2022-09-30T22:44:14.095Z,100650.50
2022-09-30T22:46:40.408Z,100648.81
2022-09-30T22:49:06.808Z,100651.72
2022-09-30T22:51:33.204Z,100642.91
2022-09-30T22:54:02.533Z,100641.69
2022-09-30T22:56:30.126Z,100639.28
2022-09-30T22:58:57.529Z,100647.03
2022-09-30T23:01:30.929Z,100650.25
2022-09-30T23:03:57.682Z,100647.63
2022-09-30T23:06:24.408Z,100649.97
2022-09-30T23:08:53.716Z,100644.16
2022-09-30T23:11:22.469Z,100631.06
2022-09-30T23:13:49.799Z,100633.72
2022-09-30T23:16:16.489Z,100630.31
2022-09-30T23:18:45.637Z,100633.41
2022-09-30T23:21:14.866Z,100632.00
2022-09-30T23:23:41.144Z,100630.94
2022-09-30T23:26:12.299Z,100642.91
2022-09-30T23:28:39.053Z,100638.13
2022-09-30T23:31:08.643Z,100639.59
2022-09-30T23:33:36.866Z,100639.19
2022-09-30T23:36:04.340Z,100630.97
2022-09-30T23:38:30.836Z,100638.75
2022-09-30T23:40:59.746Z,100637.91
2022-09-30T23:43:30.525Z,100636.13
2022-09-30T23:45:57.679Z,100644.00
2022-09-30T23:48:24.351Z,100641.31
2022-09-30T23:50:51.001Z,100651.88
2022-09-30T23:53:17.506Z,100647.66
2022-09-30T23:55:54.872Z,100651.38
2022-09-30T23:58:22.493Z,100643.25
